Decoded Metar for KOCQ ( in ) (IATA:) | Meteo·Mobile Aviation Weather
aviador You're here:

KOCQ Decoded Metar

in
Report Time2019-03-21 21:35:00
UTC Time2019-03-21 21:51:23
Flight Rules vfr VFR
Wind260° at 12 Gusting to 17 kt
W.Decomp.*RWY 29: 10.4 kt HW 6 kt LCW
RWY 22: 9.2 kt HW 7.7 kt RCW
W.Rank260° ranks 1
Current wind is above 260° avg. (7.9)
Visibility9999 m
Phenomena:N/A
Clouds:N/A
Expected CloudBase > 4,000 ft AGL from Temp-Dew spread
CeilingNone
Temp08°C
Dew Point-2°C (50% RH)
AAT1.4°C
QNH1009 hPa
Raw Report
KOCQ 212135Z AUTO 26012G17KT 10SM CLR 08/M02 A2981 RMK AO1
T00811019=

Extra information for KOCQ:More info

Social comments